createdAt,value
2022-10-05T00:01:54.449Z,82.32
2022-10-05T00:04:27.681Z,82.14
2022-10-05T00:07:08.536Z,82.38
2022-10-05T00:09:35.225Z,82.39
2022-10-05T00:12:22.929Z,82.17
2022-10-05T00:14:53.268Z,82.10
2022-10-05T00:17:22.881Z,82.25
2022-10-05T00:19:52.252Z,82.27
2022-10-05T00:22:33.433Z,82.44
2022-10-05T00:25:02.042Z,83.17
2022-10-05T00:27:36.886Z,83.32
2022-10-05T00:30:16.359Z,83.06
2022-10-05T00:32:44.108Z,82.51
2022-10-05T00:35:13.289Z,82.59
2022-10-05T00:37:40.767Z,82.45
2022-10-05T00:40:21.836Z,82.65
2022-10-05T00:42:55.976Z,82.62
2022-10-05T00:45:35.472Z,82.87
2022-10-05T00:48:18.449Z,82.91
2022-10-05T00:50:48.173Z,82.65
2022-10-05T00:53:19.847Z,82.42
2022-10-05T00:56:02.636Z,82.39
2022-10-05T00:58:29.611Z,82.59
2022-10-05T01:01:17.153Z,82.95
2022-10-05T01:03:56.701Z,82.88
2022-10-05T01:06:29.538Z,83.18
2022-10-05T01:09:31.026Z,83.07
2022-10-05T01:12:40.030Z,83.09
2022-10-05T01:15:34.859Z,83.16
2022-10-05T01:18:23.221Z,83.48
2022-10-05T01:21:12.394Z,82.72
2022-10-05T01:24:04.109Z,82.40
2022-10-05T01:27:02.112Z,82.41
2022-10-05T01:29:57.798Z,82.26
2022-10-05T01:32:34.863Z,81.90
2022-10-05T01:35:21.930Z,82.66
2022-10-05T01:38:04.247Z,83.03
2022-10-05T01:40:42.720Z,83.10
2022-10-05T01:43:17.903Z,83.31
2022-10-05T01:46:03.025Z,82.22
2022-10-05T01:49:08.393Z,81.75
2022-10-05T01:52:07.406Z,82.48
2022-10-05T01:54:57.449Z,83.23
2022-10-05T01:58:05.586Z,83.43
2022-10-05T02:00:40.398Z,83.43
2022-10-05T02:03:19.059Z,82.82
2022-10-05T02:06:05.927Z,82.22
2022-10-05T02:09:06.007Z,82.95
2022-10-05T02:11:34.041Z,83.38
2022-10-05T02:14:31.436Z,83.62
2022-10-05T02:17:05.122Z,83.82
2022-10-05T02:19:42.334Z,83.82
2022-10-05T02:22:18.126Z,83.01
2022-10-05T02:24:51.532Z,83.16
2022-10-05T02:27:25.755Z,83.24
2022-10-05T02:29:59.397Z,83.37
2022-10-05T02:32:34.810Z,82.84
2022-10-05T02:35:11.789Z,82.92
2022-10-05T02:37:45.868Z,83.09
2022-10-05T02:40:40.875Z,83.40
2022-10-05T02:43:39.609Z,83.24
2022-10-05T02:46:10.479Z,83.43
2022-10-05T02:48:53.649Z,83.33
2022-10-05T02:51:26.739Z,83.13
2022-10-05T02:54:12.529Z,83.03
2022-10-05T02:57:04.471Z,83.20
2022-10-05T02:59:40.015Z,83.18
2022-10-05T03:02:12.453Z,83.12
2022-10-05T03:05:07.853Z,83.10
2022-10-05T03:08:05.103Z,83.17
2022-10-05T03:11:00.035Z,82.98
2022-10-05T03:13:55.130Z,82.91
2022-10-05T03:16:51.312Z,82.64
2022-10-05T03:19:42.580Z,82.82
2022-10-05T03:22:21.646Z,82.47
2022-10-05T03:25:16.876Z,82.73
2022-10-05T03:27:46.994Z,82.71
2022-10-05T03:30:22.386Z,82.83
2022-10-05T03:32:56.502Z,83.16
2022-10-05T03:35:35.589Z,83.36
2022-10-05T03:38:17.447Z,83.29
2022-10-05T03:40:53.814Z,83.35
2022-10-05T03:43:26.895Z,83.11
2022-10-05T03:46:07.873Z,82.97
2022-10-05T03:48:47.831Z,83.00
2022-10-05T03:51:23.693Z,82.98
2022-10-05T03:53:56.931Z,82.98
2022-10-05T03:56:50.255Z,83.00
2022-10-05T03:59:51.914Z,83.05
2022-10-05T04:02:29.079Z,83.16
2022-10-05T04:05:09.413Z,83.05
2022-10-05T04:07:46.150Z,83.25
2022-10-05T04:10:21.463Z,83.40
2022-10-05T04:12:55.189Z,83.23
2022-10-05T04:15:45.758Z,83.04
2022-10-05T04:18:22.900Z,82.86
2022-10-05T04:20:53.248Z,82.68
2022-10-05T04:23:35.560Z,82.70
2022-10-05T04:26:08.986Z,82.37
2022-10-05T04:29:16.913Z,82.36
2022-10-05T04:32:19.348Z,82.24
2022-10-05T04:34:55.564Z,81.57
2022-10-05T04:37:37.357Z,81.82
2022-10-05T04:40:23.409Z,81.83
2022-10-05T04:42:59.597Z,81.82
2022-10-05T04:45:44.977Z,82.00
2022-10-05T04:48:40.086Z,82.56
2022-10-05T04:51:37.203Z,82.18
2022-10-05T04:54:53.218Z,80.64
2022-10-05T04:57:31.159Z,77.08
2022-10-05T05:00:05.336Z,75.37
2022-10-05T05:02:38.141Z,74.53
2022-10-05T05:05:24.123Z,73.92
2022-10-05T05:08:28.440Z,73.95
2022-10-05T05:11:15.827Z,71.56
2022-10-05T05:14:15.113Z,69.82
2022-10-05T05:17:12.896Z,70.57
2022-10-05T05:20:13.342Z,68.68
2022-10-05T05:22:53.358Z,67.40
2022-10-05T05:25:27.179Z,64.56
2022-10-05T05:28:06.320Z,65.89
2022-10-05T05:30:53.520Z,65.93
2022-10-05T05:33:35.144Z,65.03
2022-10-05T05:36:13.456Z,63.25
2022-10-05T05:39:00.272Z,60.96
2022-10-05T05:41:36.690Z,59.73
2022-10-05T05:44:24.703Z,60.41
2022-10-05T05:47:04.041Z,61.81
2022-10-05T05:49:44.248Z,62.30
2022-10-05T05:52:16.937Z,62.74
2022-10-05T05:54:56.873Z,60.91
2022-10-05T05:57:46.576Z,58.84
2022-10-05T06:00:14.495Z,56.75
2022-10-05T06:02:56.065Z,55.95
2022-10-05T06:05:30.899Z,55.79
2022-10-05T06:08:08.676Z,54.27
2022-10-05T06:10:43.985Z,53.57
2022-10-05T06:13:44.686Z,54.54
2022-10-05T06:16:29.972Z,54.21
2022-10-05T06:19:11.250Z,52.10
2022-10-05T06:22:04.971Z,50.29
2022-10-05T06:25:13.584Z,49.54
2022-10-05T10:21:18.931Z,17.26
2022-10-05T10:24:14.910Z,15.90
2022-10-05T10:26:55.620Z,16.55
2022-10-05T10:30:13.491Z,15.46
2022-10-05T10:33:05.036Z,15.42
2022-10-05T10:35:40.616Z,15.78
2022-10-05T10:38:58.083Z,14.46
2022-10-05T10:41:31.619Z,14.15
2022-10-05T10:44:02.025Z,13.67
2022-10-05T10:46:40.932Z,14.07
2022-10-05T10:49:43.831Z,15.05
2022-10-05T10:52:21.434Z,14.78
2022-10-05T10:55:14.826Z,14.97
2022-10-05T10:57:47.153Z,15.65
2022-10-05T11:00:42.948Z,16.03
2022-10-05T11:03:31.680Z,16.23
2022-10-05T11:06:21.418Z,15.98
2022-10-05T11:09:01.767Z,16.54
2022-10-05T11:12:10.275Z,16.29
2022-10-05T11:15:06.415Z,16.44
2022-10-05T11:17:48.501Z,18.07
2022-10-05T11:20:38.029Z,19.32
2022-10-05T11:23:14.458Z,21.10
2022-10-05T11:26:10.995Z,22.40
2022-10-05T11:29:05.904Z,23.64
2022-10-05T11:31:42.684Z,24.56
2022-10-05T11:34:28.090Z,25.83
2022-10-05T11:37:00.945Z,26.67
2022-10-05T11:39:43.940Z,28.20
2022-10-05T11:42:30.641Z,29.67
2022-10-05T11:45:06.254Z,30.73
2022-10-05T11:48:10.194Z,30.57
2022-10-05T11:50:51.263Z,32.09
2022-10-05T11:53:34.518Z,31.54
2022-10-05T11:56:07.441Z,32.32
2022-10-05T11:58:51.166Z,33.91
2022-10-05T12:01:26.596Z,32.95
2022-10-05T12:04:31.496Z,33.61
2022-10-05T12:07:09.038Z,34.59
2022-10-05T12:10:04.885Z,33.70
2022-10-05T12:12:54.844Z,34.78
2022-10-05T12:15:31.354Z,35.93
2022-10-05T12:18:07.771Z,35.41
2022-10-05T12:20:34.593Z,35.33
2022-10-05T12:23:14.288Z,35.48
2022-10-05T12:26:04.927Z,35.83
2022-10-05T12:28:42.590Z,36.85
2022-10-05T12:31:43.377Z,37.32
2022-10-05T12:34:27.627Z,37.27
2022-10-05T12:37:05.054Z,38.34
2022-10-05T12:39:37.833Z,38.44
2022-10-05T12:42:28.146Z,38.24
2022-10-05T12:45:16.773Z,37.81
2022-10-05T12:48:08.770Z,38.38
2022-10-05T12:51:15.869Z,38.40
2022-10-05T12:53:43.011Z,39.32
2022-10-05T12:56:16.641Z,39.82
2022-10-05T12:58:55.777Z,39.58
2022-10-05T13:01:47.118Z,39.56
2022-10-05T13:04:13.992Z,39.79
2022-10-05T13:07:11.562Z,39.59
2022-10-05T13:10:17.270Z,39.05
2022-10-05T13:13:04.724Z,40.40
2022-10-05T13:15:34.471Z,40.67
2022-10-05T13:18:13.402Z,40.63
2022-10-05T13:20:46.552Z,39.85
2022-10-05T13:23:26.057Z,40.15
2022-10-05T13:26:07.226Z,40.21
2022-10-05T13:28:46.132Z,39.37
2022-10-05T13:31:19.713Z,39.84
2022-10-05T13:34:33.570Z,39.45
2022-10-05T13:37:18.440Z,39.88
2022-10-05T13:40:16.616Z,38.68
2022-10-05T13:42:53.481Z,39.48
2022-10-05T13:45:26.033Z,40.52
2022-10-05T13:48:10.439Z,40.91
2022-10-05T13:50:58.052Z,41.02
2022-10-05T13:53:44.048Z,40.56
2022-10-05T13:56:37.034Z,42.19
2022-10-05T13:59:25.501Z,41.39
2022-10-05T14:01:58.959Z,41.04
2022-10-05T14:04:42.892Z,41.36
2022-10-05T14:07:38.262Z,41.41
2022-10-05T14:10:12.306Z,42.28
2022-10-05T14:12:42.071Z,43.15
2022-10-05T14:15:31.942Z,42.84
2022-10-05T14:17:59.151Z,43.17
2022-10-05T14:20:30.836Z,43.49
2022-10-05T14:23:01.469Z,44.08
2022-10-05T14:25:30.641Z,44.60
2022-10-05T14:28:23.825Z,44.54
2022-10-05T14:30:59.470Z,44.63
2022-10-05T14:33:32.154Z,44.59
2022-10-05T14:35:59.482Z,44.58
2022-10-05T14:38:28.896Z,44.31
2022-10-05T14:41:07.588Z,44.28
2022-10-05T14:43:35.369Z,44.66
2022-10-05T14:46:24.990Z,45.30
2022-10-05T14:49:21.451Z,45.19
2022-10-05T14:51:52.892Z,46.19
2022-10-05T14:54:34.745Z,46.22
2022-10-05T14:57:32.952Z,46.54
2022-10-05T15:00:11.506Z,48.31
2022-10-05T15:02:53.749Z,48.72
2022-10-05T15:05:42.206Z,49.34
2022-10-05T15:08:24.385Z,50.07
2022-10-05T15:11:05.882Z,50.19
2022-10-05T15:13:38.541Z,50.90
2022-10-05T15:16:18.418Z,51.15
2022-10-05T15:19:00.666Z,51.72
2022-10-05T15:22:00.618Z,52.13
2022-10-05T15:25:07.827Z,52.46
2022-10-05T15:27:48.976Z,53.10
2022-10-05T15:30:17.817Z,53.48
2022-10-05T15:33:05.607Z,53.37
2022-10-05T15:35:39.753Z,53.59
2022-10-05T15:38:20.645Z,53.80
2022-10-05T15:40:50.128Z,54.11
2022-10-05T15:43:20.422Z,54.24
2022-10-05T15:46:33.711Z,54.31
2022-10-05T15:49:37.709Z,54.56
2022-10-05T15:52:25.838Z,54.82
2022-10-05T15:55:01.050Z,54.58
2022-10-05T15:57:49.977Z,54.93
2022-10-05T16:00:21.675Z,55.79
2022-10-05T16:02:57.651Z,57.39
2022-10-05T16:05:52.750Z,57.54
2022-10-05T16:08:51.077Z,57.66
2022-10-05T16:11:31.338Z,58.55
2022-10-05T16:14:12.791Z,59.57
2022-10-05T16:16:59.422Z,60.20
2022-10-05T16:19:56.523Z,60.99
2022-10-05T16:22:43.396Z,61.42
2022-10-05T16:25:21.840Z,62.64
2022-10-05T16:28:05.670Z,62.21
2022-10-05T16:30:58.252Z,63.67
2022-10-05T16:33:53.650Z,63.28
2022-10-05T16:36:40.135Z,63.26
2022-10-05T16:39:22.615Z,63.84
2022-10-05T16:42:03.378Z,64.72
2022-10-05T16:44:42.335Z,65.56
2022-10-05T16:47:42.439Z,65.68
2022-10-05T16:50:24.473Z,66.08
2022-10-05T16:53:21.470Z,66.21
2022-10-05T16:55:55.034Z,66.27
2022-10-05T16:58:39.893Z,66.11
2022-10-05T17:01:31.341Z,65.99
2022-10-05T17:04:31.278Z,66.77
2022-10-05T17:07:31.302Z,67.08
2022-10-05T17:10:10.254Z,67.32
2022-10-05T17:12:44.891Z,67.67
2022-10-05T17:15:29.724Z,67.62
2022-10-05T17:18:23.128Z,67.96
2022-10-05T17:21:02.039Z,68.48
2022-10-05T17:24:00.344Z,68.24
2022-10-05T17:26:46.103Z,68.72
2022-10-05T17:29:24.773Z,68.44
2022-10-05T17:32:33.004Z,68.55
2022-10-05T17:34:59.963Z,69.00
2022-10-05T17:37:26.599Z,69.47
2022-10-05T17:39:55.125Z,69.69
2022-10-05T17:42:30.920Z,70.66
2022-10-05T17:45:02.070Z,70.17
2022-10-05T17:48:05.503Z,70.58
2022-10-05T17:50:58.793Z,71.86
2022-10-05T17:53:53.504Z,71.84
2022-10-05T17:56:22.493Z,71.96
2022-10-05T17:58:54.011Z,72.05
2022-10-05T18:01:31.913Z,72.21
2022-10-05T18:04:10.944Z,73.41
2022-10-05T18:06:56.562Z,73.52
2022-10-05T18:09:24.128Z,74.00
2022-10-05T18:12:15.793Z,74.53
2022-10-05T18:15:02.505Z,74.36
2022-10-05T18:17:45.860Z,74.59
2022-10-05T18:20:34.147Z,74.35
2022-10-05T18:23:08.767Z,74.64
2022-10-05T18:25:44.774Z,74.38
2022-10-05T18:28:22.757Z,74.12
2022-10-05T18:31:27.758Z,73.78
2022-10-05T18:34:25.946Z,74.33
2022-10-05T18:37:17.160Z,74.77
2022-10-05T18:40:02.437Z,74.21
2022-10-05T18:42:55.263Z,74.63
2022-10-05T18:45:49.844Z,74.72
2022-10-05T18:48:40.512Z,74.76
2022-10-05T18:51:25.505Z,74.72
2022-10-05T18:54:35.830Z,74.82
2022-10-05T18:57:57.263Z,75.51
2022-10-05T19:00:31.117Z,75.01
2022-10-05T19:03:39.883Z,75.60
2022-10-05T19:06:25.699Z,75.56
2022-10-05T19:09:23.364Z,75.62
2022-10-05T19:12:30.624Z,75.49
2022-10-05T19:15:12.462Z,76.00
2022-10-05T19:17:55.864Z,75.72
2022-10-05T19:20:50.761Z,75.86
2022-10-05T19:23:42.185Z,75.83
2022-10-05T19:26:18.323Z,76.20
2022-10-05T19:29:16.025Z,76.66
2022-10-05T19:31:54.320Z,77.01
2022-10-05T19:34:45.268Z,77.01
2022-10-05T19:37:42.442Z,76.73
2022-10-05T19:40:25.919Z,76.59
2022-10-05T19:43:07.624Z,76.37
2022-10-05T19:45:43.675Z,76.37
2022-10-05T19:48:28.894Z,76.72
2022-10-05T19:51:00.957Z,76.68
2022-10-05T19:53:36.507Z,76.58
2022-10-05T19:56:29.455Z,77.11
2022-10-05T19:58:58.845Z,77.17
2022-10-05T20:01:36.471Z,77.22
2022-10-05T20:04:04.535Z,77.06
2022-10-05T20:06:31.265Z,76.76
2022-10-05T20:08:59.590Z,77.08
2022-10-05T20:11:27.986Z,77.06
2022-10-05T20:13:54.648Z,77.60
2022-10-05T20:19:50.846Z,77.60
2022-10-05T20:22:36.760Z,77.40
2022-10-05T20:25:28.249Z,77.41
2022-10-05T20:27:56.123Z,77.79
2022-10-05T20:30:28.091Z,77.94
2022-10-05T20:33:01.075Z,77.23
2022-10-05T20:35:30.035Z,76.11
2022-10-05T20:37:59.530Z,76.08
2022-10-05T20:40:28.568Z,76.56
2022-10-05T20:42:56.500Z,77.47
2022-10-05T20:45:23.346Z,77.10
2022-10-05T20:47:50.217Z,78.16
2022-10-05T20:50:17.398Z,78.72
2022-10-05T20:52:44.132Z,78.81
2022-10-05T20:55:12.015Z,78.54
2022-10-05T20:57:42.920Z,78.16
2022-10-05T21:00:11.737Z,77.86
2022-10-05T21:02:39.005Z,78.44
2022-10-05T21:05:07.097Z,78.15
2022-10-05T21:07:34.798Z,77.82
2022-10-05T21:10:03.179Z,78.79
2022-10-05T21:12:32.188Z,79.08
2022-10-05T21:14:59.354Z,80.35
2022-10-05T21:17:26.096Z,79.93
2022-10-05T21:19:52.906Z,79.69
2022-10-05T21:22:19.727Z,79.26
2022-10-05T21:24:46.757Z,78.50
2022-10-05T21:27:14.426Z,78.32
2022-10-05T21:29:41.131Z,77.77
2022-10-05T21:32:10.984Z,78.12
2022-10-05T21:34:38.810Z,78.04
2022-10-05T21:37:06.644Z,78.12
2022-10-05T21:39:34.666Z,78.26
2022-10-05T21:42:02.056Z,78.06
2022-10-05T21:44:28.782Z,78.05
2022-10-05T21:46:56.099Z,77.52
2022-10-05T21:49:23.931Z,77.79
2022-10-05T21:51:50.738Z,78.39
2022-10-05T21:54:20.704Z,78.75
2022-10-05T21:56:55.119Z,78.82
2022-10-05T21:59:26.697Z,78.83
2022-10-05T22:01:53.475Z,78.64
2022-10-05T22:04:20.449Z,78.57
2022-10-05T22:06:48.704Z,78.30
2022-10-05T22:09:15.437Z,78.27
2022-10-05T22:11:45.282Z,78.42
2022-10-05T22:14:14.513Z,78.87
2022-10-05T22:16:42.993Z,79.64
2022-10-05T22:19:17.203Z,79.91
2022-10-05T22:21:44.287Z,79.49
2022-10-05T22:24:11.095Z,79.52
2022-10-05T22:26:40.177Z,79.64
2022-10-05T22:29:07.218Z,79.94
2022-10-05T22:31:34.516Z,80.12
2022-10-05T22:34:01.379Z,79.61
2022-10-05T22:36:28.454Z,79.56
2022-10-05T22:38:55.212Z,80.01
2022-10-05T22:41:22.051Z,80.09
2022-10-05T22:43:50.454Z,79.75
2022-10-05T22:46:18.038Z,80.27
2022-10-05T22:48:45.191Z,80.33
2022-10-05T22:51:12.491Z,80.43
2022-10-05T22:53:39.454Z,81.06
2022-10-05T22:56:10.605Z,81.21
2022-10-05T22:58:37.862Z,81.60
2022-10-05T23:01:07.166Z,81.89
2022-10-05T23:03:34.769Z,81.79
2022-10-05T23:06:11.627Z,81.90
2022-10-05T23:08:39.676Z,81.48
2022-10-05T23:11:12.876Z,81.29
2022-10-05T23:13:41.454Z,81.10
2022-10-05T23:16:11.265Z,81.71
2022-10-05T23:18:38.511Z,82.04
2022-10-05T23:21:09.254Z,82.00
2022-10-05T23:23:37.893Z,82.48
2022-10-05T23:26:07.342Z,82.40
2022-10-05T23:28:34.463Z,82.69
2022-10-05T23:31:04.462Z,82.55
2022-10-05T23:33:32.145Z,82.54
2022-10-05T23:36:04.190Z,82.89
2022-10-05T23:38:32.136Z,83.17
2022-10-05T23:40:59.419Z,82.92
2022-10-05T23:43:27.003Z,82.33
2022-10-05T23:45:54.835Z,81.81
2022-10-05T23:48:22.325Z,81.79
2022-10-05T23:50:49.596Z,81.40
2022-10-05T23:53:17.762Z,81.26
2022-10-05T23:55:44.761Z,81.31
2022-10-05T23:58:12.023Z,80.92
